sensor_id;sensor_type;location;lat;lon;timestamp;pressure;altitude;pressure_sealevel;temperature;humidity
7335;BME280;3708;42.632;23.378;2023-03-19T00:00:17;94815.63;;;6.86;42.49
7335;BME280;3708;42.632;23.378;2023-03-19T00:02:45;94818.25;;;6.86;42.50
7335;BME280;3708;42.632;23.378;2023-03-19T00:05:18;94815.72;;;7.00;42.56
7335;BME280;3708;42.632;23.378;2023-03-19T00:07:45;94804.88;;;6.93;42.68
7335;BME280;3708;42.632;23.378;2023-03-19T00:10:12;94808.13;;;6.85;42.31
7335;BME280;3708;42.632;23.378;2023-03-19T00:12:39;94809.31;;;6.74;42.57
7335;BME280;3708;42.632;23.378;2023-03-19T00:15:07;94811.75;;;6.65;42.71
7335;BME280;3708;42.632;23.378;2023-03-19T00:17:38;94801.28;;;6.70;42.43
7335;BME280;3708;42.632;23.378;2023-03-19T00:20:08;94800.66;;;6.78;42.23
7335;BME280;3708;42.632;23.378;2023-03-19T00:22:35;94799.47;;;6.89;42.43
7335;BME280;3708;42.632;23.378;2023-03-19T00:25:03;94799.97;;;6.91;41.83
7335;BME280;3708;42.632;23.378;2023-03-19T00:27:30;94795.72;;;6.96;42.09
7335;BME280;3708;42.632;23.378;2023-03-19T00:29:56;94782.72;;;6.96;41.51
7335;BME280;3708;42.632;23.378;2023-03-19T00:32:23;94789.13;;;6.84;41.96
7335;BME280;3708;42.632;23.378;2023-03-19T00:34:50;94791.78;;;6.79;42.07
7335;BME280;3708;42.632;23.378;2023-03-19T00:37:19;94785.66;;;6.70;42.85
7335;BME280;3708;42.632;23.378;2023-03-19T00:39:46;94790.78;;;6.75;42.44
7335;BME280;3708;42.632;23.378;2023-03-19T00:42:13;94786.56;;;6.79;42.43
7335;BME280;3708;42.632;23.378;2023-03-19T00:44:40;94782.13;;;6.80;42.68
7335;BME280;3708;42.632;23.378;2023-03-19T00:47:07;94780.16;;;6.53;42.73
7335;BME280;3708;42.632;23.378;2023-03-19T00:49:34;94772.56;;;6.38;43.41
7335;BME280;3708;42.632;23.378;2023-03-19T00:52:01;94775.06;;;6.25;43.04
7335;BME280;3708;42.632;23.378;2023-03-19T00:54:30;94777.50;;;6.16;43.07
7335;BME280;3708;42.632;23.378;2023-03-19T00:56:58;94776.47;;;6.36;42.81
7335;BME280;3708;42.632;23.378;2023-03-19T00:59:25;94776.22;;;6.56;42.17
7335;BME280;3708;42.632;23.378;2023-03-19T01:01:52;94775.72;;;6.54;41.60
7335;BME280;3708;42.632;23.378;2023-03-19T01:04:19;94774.25;;;6.48;41.91
7335;BME280;3708;42.632;23.378;2023-03-19T01:06:46;94773.78;;;6.41;42.21
7335;BME280;3708;42.632;23.378;2023-03-19T01:09:13;94771.34;;;6.49;42.10
7335;BME280;3708;42.632;23.378;2023-03-19T01:11:41;94771.13;;;6.27;42.23
7335;BME280;3708;42.632;23.378;2023-03-19T01:14:08;94763.72;;;6.34;42.11
7335;BME280;3708;42.632;23.378;2023-03-19T01:16:36;94765.16;;;6.45;42.45
7335;BME280;3708;42.632;23.378;2023-03-19T01:19:03;94765.03;;;6.55;42.54
7335;BME280;3708;42.632;23.378;2023-03-19T01:21:30;94765.44;;;6.44;42.94
7335;BME280;3708;42.632;23.378;2023-03-19T01:23:57;94764.47;;;6.58;42.53
7335;BME280;3708;42.632;23.378;2023-03-19T01:26:24;94758.47;;;6.58;42.70
7335;BME280;3708;42.632;23.378;2023-03-19T01:28:54;94759.03;;;6.36;43.43
7335;BME280;3708;42.632;23.378;2023-03-19T01:31:21;94757.34;;;6.27;43.52
7335;BME280;3708;42.632;23.378;2023-03-19T01:33:47;94758.28;;;6.12;43.66
7335;BME280;3708;42.632;23.378;2023-03-19T01:36:15;94763.38;;;6.22;43.88
7335;BME280;3708;42.632;23.378;2023-03-19T01:38:41;94755.91;;;6.15;43.51
7335;BME280;3708;42.632;23.378;2023-03-19T01:41:08;94753.63;;;6.09;43.27
7335;BME280;3708;42.632;23.378;2023-03-19T01:43:36;94754.78;;;5.98;43.32
7335;BME280;3708;42.632;23.378;2023-03-19T01:46:06;94753.91;;;5.84;43.33
7335;BME280;3708;42.632;23.378;2023-03-19T01:48:38;94753.34;;;5.87;43.02
7335;BME280;3708;42.632;23.378;2023-03-19T01:51:08;94756.22;;;5.85;43.01
7335;BME280;3708;42.632;23.378;2023-03-19T01:53:37;94763.06;;;5.76;43.31
7335;BME280;3708;42.632;23.378;2023-03-19T01:56:08;94757.59;;;5.78;43.54
7335;BME280;3708;42.632;23.378;2023-03-19T01:58:47;94762.06;;;6.01;43.09
7335;BME280;3708;42.632;23.378;2023-03-19T02:01:19;94763.25;;;5.85;43.45
7335;BME280;3708;42.632;23.378;2023-03-19T02:03:46;94754.53;;;5.71;44.10
7335;BME280;3708;42.632;23.378;2023-03-19T02:06:14;94763.22;;;5.90;43.20
7335;BME280;3708;42.632;23.378;2023-03-19T02:08:41;94766.97;;;6.02;43.78
7335;BME280;3708;42.632;23.378;2023-03-19T02:11:08;94755.56;;;6.22;43.45
7335;BME280;3708;42.632;23.378;2023-03-19T02:13:35;94756.22;;;6.09;43.25
7335;BME280;3708;42.632;23.378;2023-03-19T02:16:03;94767.47;;;5.76;43.63
7335;BME280;3708;42.632;23.378;2023-03-19T02:18:32;94763.94;;;5.38;44.90
7335;BME280;3708;42.632;23.378;2023-03-19T02:21:02;94755.88;;;5.68;44.67
7335;BME280;3708;42.632;23.378;2023-03-19T02:23:36;94761.53;;;5.75;44.10
7335;BME280;3708;42.632;23.378;2023-03-19T02:26:06;94760.66;;;5.85;44.40
7335;BME280;3708;42.632;23.378;2023-03-19T02:28:36;94766.09;;;5.88;44.36
7335;BME280;3708;42.632;23.378;2023-03-19T02:31:04;94766.97;;;5.74;44.60
7335;BME280;3708;42.632;23.378;2023-03-19T02:33:31;94764.59;;;5.54;45.06
7335;BME280;3708;42.632;23.378;2023-03-19T02:35:58;94761.91;;;5.59;44.83
7335;BME280;3708;42.632;23.378;2023-03-19T02:38:29;94770.69;;;5.68;44.37
7335;BME280;3708;42.632;23.378;2023-03-19T02:41:00;94765.09;;;5.56;44.24
7335;BME280;3708;42.632;23.378;2023-03-19T02:43:31;94769.16;;;5.33;45.06
7335;BME280;3708;42.632;23.378;2023-03-19T02:45:59;94764.22;;;5.36;44.85
7335;BME280;3708;42.632;23.378;2023-03-19T02:48:26;94761.94;;;5.30;44.65
7335;BME280;3708;42.632;23.378;2023-03-19T02:50:53;94764.91;;;5.13;44.93
7335;BME280;3708;42.632;23.378;2023-03-19T02:53:21;94766.25;;;5.11;44.62
7335;BME280;3708;42.632;23.378;2023-03-19T02:55:48;94757.13;;;5.13;44.87
7335;BME280;3708;42.632;23.378;2023-03-19T02:58:15;94765.34;;;5.25;44.42
7335;BME280;3708;42.632;23.378;2023-03-19T03:00:44;94760.69;;;5.22;44.07
7335;BME280;3708;42.632;23.378;2023-03-19T03:03:12;94758.66;;;5.19;44.05
7335;BME280;3708;42.632;23.378;2023-03-19T03:05:39;94771.25;;;4.97;44.64
7335;BME280;3708;42.632;23.378;2023-03-19T03:08:05;94767.47;;;4.36;46.23
7335;BME280;3708;42.632;23.378;2023-03-19T03:10:34;94768.69;;;4.92;45.73
7335;BME280;3708;42.632;23.378;2023-03-19T03:13:02;94765.44;;;5.15;45.52
7335;BME280;3708;42.632;23.378;2023-03-19T03:15:30;94765.84;;;5.27;44.50
7335;BME280;3708;42.632;23.378;2023-03-19T03:17:58;94772.63;;;5.52;44.25
7335;BME280;3708;42.632;23.378;2023-03-19T03:20:25;94771.81;;;5.57;44.09
7335;BME280;3708;42.632;23.378;2023-03-19T03:22:52;94785.41;;;5.49;44.01
7335;BME280;3708;42.632;23.378;2023-03-19T03:25:19;94785.97;;;4.68;45.70
7335;BME280;3708;42.632;23.378;2023-03-19T03:27:47;94790.63;;;4.71;45.85
7335;BME280;3708;42.632;23.378;2023-03-19T03:30:14;94785.94;;;5.17;45.25
7335;BME280;3708;42.632;23.378;2023-03-19T03:32:41;94790.63;;;5.43;45.10
7335;BME280;3708;42.632;23.378;2023-03-19T03:35:10;94785.06;;;5.60;44.47
7335;BME280;3708;42.632;23.378;2023-03-19T03:37:37;94784.22;;;5.36;44.47
7335;BME280;3708;42.632;23.378;2023-03-19T03:40:05;94791.56;;;5.58;44.50
7335;BME280;3708;42.632;23.378;2023-03-19T03:42:34;94786.50;;;5.71;44.36
7335;BME280;3708;42.632;23.378;2023-03-19T03:45:02;94797.63;;;5.77;44.46
7335;BME280;3708;42.632;23.378;2023-03-19T03:47:29;94804.00;;;5.32;45.82
7335;BME280;3708;42.632;23.378;2023-03-19T03:49:56;94798.41;;;5.49;44.92
7335;BME280;3708;42.632;23.378;2023-03-19T03:52:25;94801.88;;;5.68;44.75
7335;BME280;3708;42.632;23.378;2023-03-19T03:54:56;94803.47;;;5.64;44.30
7335;BME280;3708;42.632;23.378;2023-03-19T03:57:24;94799.03;;;5.64;44.29
7335;BME280;3708;42.632;23.378;2023-03-19T03:59:51;94807.16;;;5.58;44.48
7335;BME280;3708;42.632;23.378;2023-03-19T04:02:18;94801.97;;;5.58;44.39
7335;BME280;3708;42.632;23.378;2023-03-19T04:04:46;94796.50;;;5.25;44.60
7335;BME280;3708;42.632;23.378;2023-03-19T04:07:13;94803.91;;;4.59;46.58
7335;BME280;3708;42.632;23.378;2023-03-19T04:09:41;94806.47;;;4.11;47.61
7335;BME280;3708;42.632;23.378;2023-03-19T04:12:08;94802.56;;;4.13;48.07
7335;BME280;3708;42.632;23.378;2023-03-19T04:14:35;94802.44;;;3.64;49.27
7335;BME280;3708;42.632;23.378;2023-03-19T04:17:02;94802.88;;;3.97;49.63
7335;BME280;3708;42.632;23.378;2023-03-19T04:19:30;94796.09;;;4.06;49.51
7335;BME280;3708;42.632;23.378;2023-03-19T04:21:57;94795.69;;;4.47;48.74
7335;BME280;3708;42.632;23.378;2023-03-19T04:24:25;94799.41;;;4.80;48.22
7335;BME280;3708;42.632;23.378;2023-03-19T04:26:53;94800.44;;;4.84;48.03
7335;BME280;3708;42.632;23.378;2023-03-19T04:29:20;94798.00;;;4.98;47.66
7335;BME280;3708;42.632;23.378;2023-03-19T04:31:48;94806.03;;;4.96;47.30
7335;BME280;3708;42.632;23.378;2023-03-19T04:34:16;94804.38;;;5.15;47.23
7335;BME280;3708;42.632;23.378;2023-03-19T04:36:44;94807.22;;;5.19;47.03
7335;BME280;3708;42.632;23.378;2023-03-19T04:39:11;94811.69;;;5.08;46.71
7335;BME280;3708;42.632;23.378;2023-03-19T04:41:38;94809.03;;;5.13;46.61
7335;BME280;3708;42.632;23.378;2023-03-19T04:44:06;94812.44;;;5.14;46.42
7335;BME280;3708;42.632;23.378;2023-03-19T04:46:34;94810.09;;;5.12;46.39
7335;BME280;3708;42.632;23.378;2023-03-19T04:49:01;94806.72;;;5.17;46.10
7335;BME280;3708;42.632;23.378;2023-03-19T04:51:28;94803.81;;;5.18;45.74
7335;BME280;3708;42.632;23.378;2023-03-19T04:53:55;94805.41;;;5.19;45.83
7335;BME280;3708;42.632;23.378;2023-03-19T04:56:22;94802.75;;;5.24;45.79
7335;BME280;3708;42.632;23.378;2023-03-19T04:58:49;94803.75;;;5.28;45.23
7335;BME280;3708;42.632;23.378;2023-03-19T05:01:18;94802.69;;;5.34;45.22
7335;BME280;3708;42.632;23.378;2023-03-19T05:03:44;94810.19;;;5.36;45.33
7335;BME280;3708;42.632;23.378;2023-03-19T05:06:11;94805.22;;;5.39;45.05
7335;BME280;3708;42.632;23.378;2023-03-19T05:08:38;94809.09;;;5.42;44.83
7335;BME280;3708;42.632;23.378;2023-03-19T05:11:05;94805.31;;;5.29;44.80
7335;BME280;3708;42.632;23.378;2023-03-19T05:13:32;94802.03;;;5.14;45.75
7335;BME280;3708;42.632;23.378;2023-03-19T05:16:00;94801.06;;;5.05;45.95
7335;BME280;3708;42.632;23.378;2023-03-19T05:18:29;94810.72;;;4.99;46.50
7335;BME280;3708;42.632;23.378;2023-03-19T05:20:59;94807.09;;;5.00;46.79
7335;BME280;3708;42.632;23.378;2023-03-19T05:23:26;94809.09;;;5.08;46.79
7335;BME280;3708;42.632;23.378;2023-03-19T05:25:54;94819.81;;;4.48;48.19
7335;BME280;3708;42.632;23.378;2023-03-19T05:28:21;94813.41;;;4.84;48.14
7335;BME280;3708;42.632;23.378;2023-03-19T05:30:48;94815.06;;;5.09;47.45
7335;BME280;3708;42.632;23.378;2023-03-19T05:33:15;94810.63;;;5.09;47.46
7335;BME280;3708;42.632;23.378;2023-03-19T05:35:44;94817.31;;;5.20;47.51
7335;BME280;3708;42.632;23.378;2023-03-19T05:38:11;94806.72;;;5.17;48.21
7335;BME280;3708;42.632;23.378;2023-03-19T05:40:38;94817.47;;;5.34;48.37
7335;BME280;3708;42.632;23.378;2023-03-19T05:43:06;94810.41;;;5.39;48.25
7335;BME280;3708;42.632;23.378;2023-03-19T05:45:33;94810.25;;;5.60;47.87
7335;BME280;3708;42.632;23.378;2023-03-19T05:48:00;94811.78;;;5.61;47.88
7335;BME280;3708;42.632;23.378;2023-03-19T05:50:28;94807.31;;;5.71;47.48
7335;BME280;3708;42.632;23.378;2023-03-19T05:52:57;94814.03;;;5.72;47.46
7335;BME280;3708;42.632;23.378;2023-03-19T05:55:24;94816.31;;;5.50;48.18
7335;BME280;3708;42.632;23.378;2023-03-19T05:57:51;94817.19;;;5.40;47.73
7335;BME280;3708;42.632;23.378;2023-03-19T06:00:19;94811.91;;;5.46;48.41
7335;BME280;3708;42.632;23.378;2023-03-19T06:02:46;94813.50;;;5.75;47.96
7335;BME280;3708;42.632;23.378;2023-03-19T06:05:13;94814.72;;;5.83;47.63
7335;BME280;3708;42.632;23.378;2023-03-19T06:07:40;94815.09;;;6.00;47.19
7335;BME280;3708;42.632;23.378;2023-03-19T06:10:10;94817.78;;;6.19;46.77
7335;BME280;3708;42.632;23.378;2023-03-19T06:12:37;94813.00;;;6.02;46.96
7335;BME280;3708;42.632;23.378;2023-03-19T06:15:07;94819.56;;;6.23;47.10
7335;BME280;3708;42.632;23.378;2023-03-19T06:17:35;94821.56;;;6.50;46.58
7335;BME280;3708;42.632;23.378;2023-03-19T06:20:02;94808.66;;;6.63;46.65
7335;BME280;3708;42.632;23.378;2023-03-19T06:22:29;94815.63;;;6.86;45.59
7335;BME280;3708;42.632;23.378;2023-03-19T06:24:56;94821.09;;;6.90;44.97
7335;BME280;3708;42.632;23.378;2023-03-19T06:27:24;94814.16;;;6.99;44.54
7335;BME280;3708;42.632;23.378;2023-03-19T06:29:53;94817.94;;;6.88;45.05
7335;BME280;3708;42.632;23.378;2023-03-19T06:32:42;94818.09;;;6.97;44.62
7335;BME280;3708;42.632;23.378;2023-03-19T06:35:09;94821.72;;;7.01;44.47
7335;BME280;3708;42.632;23.378;2023-03-19T06:37:35;94830.34;;;7.15;44.68
7335;BME280;3708;42.632;23.378;2023-03-19T06:40:03;94833.31;;;6.89;45.06
7335;BME280;3708;42.632;23.378;2023-03-19T06:42:32;94838.59;;;7.03;44.47
7335;BME280;3708;42.632;23.378;2023-03-19T06:44:59;94840.72;;;7.20;44.63
7335;BME280;3708;42.632;23.378;2023-03-19T06:47:27;94836.69;;;7.27;43.86
7335;BME280;3708;42.632;23.378;2023-03-19T06:49:53;94836.69;;;7.46;43.62
7335;BME280;3708;42.632;23.378;2023-03-19T06:52:20;94832.19;;;7.33;43.44
7335;BME280;3708;42.632;23.378;2023-03-19T06:54:47;94833.84;;;7.61;43.55
7335;BME280;3708;42.632;23.378;2023-03-19T06:57:14;94845.97;;;7.84;43.16
7335;BME280;3708;42.632;23.378;2023-03-19T06:59:42;94849.25;;;7.76;42.80
7335;BME280;3708;42.632;23.378;2023-03-19T07:02:10;94845.53;;;7.45;43.20
7335;BME280;3708;42.632;23.378;2023-03-19T07:04:37;94843.59;;;7.00;44.86
7335;BME280;3708;42.632;23.378;2023-03-19T07:07:04;94851.03;;;7.25;44.33
7335;BME280;3708;42.632;23.378;2023-03-19T07:09:31;94845.38;;;7.55;43.84
7335;BME280;3708;42.632;23.378;2023-03-19T07:11:58;94851.97;;;7.98;43.38
7335;BME280;3708;42.632;23.378;2023-03-19T07:14:26;94841.81;;;8.29;41.76
7335;BME280;3708;42.632;23.378;2023-03-19T07:16:55;94844.44;;;8.29;41.99
7335;BME280;3708;42.632;23.378;2023-03-19T07:19:22;94843.06;;;8.72;42.18
7335;BME280;3708;42.632;23.378;2023-03-19T07:21:51;94842.69;;;8.79;41.41
7335;BME280;3708;42.632;23.378;2023-03-19T07:24:21;94846.16;;;8.88;40.86
7335;BME280;3708;42.632;23.378;2023-03-19T07:26:48;94850.53;;;8.38;41.28
7335;BME280;3708;42.632;23.378;2023-03-19T07:29:16;94833.47;;;8.95;41.13
7335;BME280;3708;42.632;23.378;2023-03-19T07:31:43;94840.22;;;9.32;40.95
7335;BME280;3708;42.632;23.378;2023-03-19T07:34:11;94838.63;;;9.22;41.27
7335;BME280;3708;42.632;23.378;2023-03-19T07:36:38;94835.78;;;9.32;40.34
7335;BME280;3708;42.632;23.378;2023-03-19T07:39:05;94836.25;;;9.34;39.11
7335;BME280;3708;42.632;23.378;2023-03-19T07:41:32;94831.91;;;9.30;39.83
7335;BME280;3708;42.632;23.378;2023-03-19T07:44:00;94827.59;;;9.47;39.68
7335;BME280;3708;42.632;23.378;2023-03-19T07:46:27;94827.34;;;9.79;38.85
7335;BME280;3708;42.632;23.378;2023-03-19T07:48:54;94845.88;;;10.14;38.66
7335;BME280;3708;42.632;23.378;2023-03-19T07:51:22;94835.16;;;10.24;37.91
7335;BME280;3708;42.632;23.378;2023-03-19T07:53:52;94839.13;;;10.52;37.92
7335;BME280;3708;42.632;23.378;2023-03-19T07:56:20;94843.78;;;10.72;36.90
7335;BME280;3708;42.632;23.378;2023-03-19T07:58:48;94834.09;;;10.72;37.07
7335;BME280;3708;42.632;23.378;2023-03-19T08:01:16;94833.72;;;10.57;37.16
7335;BME280;3708;42.632;23.378;2023-03-19T08:03:43;94838.91;;;10.09;37.59
7335;BME280;3708;42.632;23.378;2023-03-19T08:06:10;94840.56;;;10.27;37.34
7335;BME280;3708;42.632;23.378;2023-03-19T08:08:40;94839.19;;;10.30;37.57
7335;BME280;3708;42.632;23.378;2023-03-19T08:11:06;94839.03;;;10.26;37.18
7335;BME280;3708;42.632;23.378;2023-03-19T08:13:35;94841.81;;;10.08;38.04
7335;BME280;3708;42.632;23.378;2023-03-19T08:16:04;94837.19;;;10.05;37.23
7335;BME280;3708;42.632;23.378;2023-03-19T08:18:31;94840.13;;;10.34;37.66
7335;BME280;3708;42.632;23.378;2023-03-19T08:21:05;94834.50;;;10.57;37.31
7335;BME280;3708;42.632;23.378;2023-03-19T08:23:34;94842.00;;;10.42;37.78
7335;BME280;3708;42.632;23.378;2023-03-19T08:26:02;94835.66;;;10.73;36.42
7335;BME280;3708;42.632;23.378;2023-03-19T08:28:31;94843.09;;;10.89;36.39
7335;BME280;3708;42.632;23.378;2023-03-19T08:31:05;94838.66;;;11.23;35.94
7335;BME280;3708;42.632;23.378;2023-03-19T08:33:32;94839.41;;;11.32;35.74
7335;BME280;3708;42.632;23.378;2023-03-19T08:36:04;94833.41;;;11.32;36.18
7335;BME280;3708;42.632;23.378;2023-03-19T08:38:32;94827.88;;;11.68;35.44
7335;BME280;3708;42.632;23.378;2023-03-19T08:40:59;94829.09;;;11.70;35.13
7335;BME280;3708;42.632;23.378;2023-03-19T08:43:30;94825.06;;;11.90;34.73
7335;BME280;3708;42.632;23.378;2023-03-19T08:45:58;94823.78;;;12.04;34.98
7335;BME280;3708;42.632;23.378;2023-03-19T08:48:27;94818.50;;;12.13;34.05
7335;BME280;3708;42.632;23.378;2023-03-19T08:51:03;94821.16;;;12.13;33.75
7335;BME280;3708;42.632;23.378;2023-03-19T08:53:31;94817.06;;;12.62;33.31
7335;BME280;3708;42.632;23.378;2023-03-19T08:55:59;94818.75;;;12.66;32.36
7335;BME280;3708;42.632;23.378;2023-03-19T08:58:27;94813.56;;;12.87;32.10
7335;BME280;3708;42.632;23.378;2023-03-19T09:01:02;94809.75;;;12.76;31.47
7335;BME280;3708;42.632;23.378;2023-03-19T09:03:30;94811.28;;;12.48;31.66
7335;BME280;3708;42.632;23.378;2023-03-19T09:05:58;94803.84;;;12.12;32.49
7335;BME280;3708;42.632;23.378;2023-03-19T09:08:27;94799.78;;;12.61;31.88
7335;BME280;3708;42.632;23.378;2023-03-19T09:10:55;94794.88;;;12.80;32.38
7335;BME280;3708;42.632;23.378;2023-03-19T09:13:22;94801.38;;;12.82;31.69
7335;BME280;3708;42.632;23.378;2023-03-19T09:15:51;94795.16;;;12.58;31.35
7335;BME280;3708;42.632;23.378;2023-03-19T09:18:21;94797.59;;;12.25;32.04
7335;BME280;3708;42.632;23.378;2023-03-19T09:20:50;94796.81;;;12.62;31.68
7335;BME280;3708;42.632;23.378;2023-03-19T09:23:18;94788.00;;;12.67;31.48
7335;BME280;3708;42.632;23.378;2023-03-19T09:25:47;94788.19;;;12.24;32.23
7335;BME280;3708;42.632;23.378;2023-03-19T09:28:16;94787.56;;;11.64;33.43
7335;BME280;3708;42.632;23.378;2023-03-19T09:30:45;94796.78;;;12.42;31.98
7335;BME280;3708;42.632;23.378;2023-03-19T09:33:12;94785.13;;;12.80;31.40
7335;BME280;3708;42.632;23.378;2023-03-19T09:35:41;94783.84;;;11.90;32.91
7335;BME280;3708;42.632;23.378;2023-03-19T09:38:08;94787.56;;;11.81;32.38
7335;BME280;3708;42.632;23.378;2023-03-19T09:40:38;94796.69;;;11.75;33.28
7335;BME280;3708;42.632;23.378;2023-03-19T09:43:30;94791.81;;;12.78;32.02
7335;BME280;3708;42.632;23.378;2023-03-19T09:46:03;94775.22;;;13.48;31.47
7335;BME280;3708;42.632;23.378;2023-03-19T09:48:34;94789.72;;;13.54;31.43
7335;BME280;3708;42.632;23.378;2023-03-19T09:51:11;94787.00;;;13.30;31.95
7335;BME280;3708;42.632;23.378;2023-03-19T09:53:46;94777.78;;;14.01;30.68
7335;BME280;3708;42.632;23.378;2023-03-19T09:56:16;94771.66;;;14.21;30.51
7335;BME280;3708;42.632;23.378;2023-03-19T09:58:44;94774.81;;;14.60;30.06
7335;BME280;3708;42.632;23.378;2023-03-19T10:01:22;94771.84;;;14.04;31.40
7335;BME280;3708;42.632;23.378;2023-03-19T10:04:03;94769.69;;;14.18;30.27
7335;BME280;3708;42.632;23.378;2023-03-19T10:06:35;94769.47;;;14.23;30.15
7335;BME280;3708;42.632;23.378;2023-03-19T10:09:28;94758.97;;;14.35;30.58
7335;BME280;3708;42.632;23.378;2023-03-19T10:12:11;94755.88;;;14.82;30.22
7335;BME280;3708;42.632;23.378;2023-03-19T10:14:57;94758.81;;;15.04;30.04
7335;BME280;3708;42.632;23.378;2023-03-19T10:17:30;94757.31;;;14.43;29.11
7335;BME280;3708;42.632;23.378;2023-03-19T10:20:02;94752.53;;;14.97;29.10
7335;BME280;3708;42.632;23.378;2023-03-19T10:22:35;94749.38;;;13.95;29.77
7335;BME280;3708;42.632;23.378;2023-03-19T10:25:05;94744.94;;;13.87;30.15
7335;BME280;3708;42.632;23.378;2023-03-19T10:27:37;94735.78;;;14.65;30.04
7335;BME280;3708;42.632;23.378;2023-03-19T10:30:12;94736.22;;;15.19;29.49
7335;BME280;3708;42.632;23.378;2023-03-19T10:32:41;94729.91;;;14.96;28.83
7335;BME280;3708;42.632;23.378;2023-03-19T10:35:17;94719.59;;;15.58;28.66
7335;BME280;3708;42.632;23.378;2023-03-19T10:37:47;94717.66;;;16.18;27.48
7335;BME280;3708;42.632;23.378;2023-03-19T10:40:20;94718.75;;;16.48;26.83
7335;BME280;3708;42.632;23.378;2023-03-19T10:43:02;94716.94;;;15.58;27.93
7335;BME280;3708;42.632;23.378;2023-03-19T10:45:32;94711.81;;;15.50;28.05
7335;BME280;3708;42.632;23.378;2023-03-19T10:48:02;94703.78;;;15.18;28.49
7335;BME280;3708;42.632;23.378;2023-03-19T10:50:33;94702.81;;;14.71;29.52
7335;BME280;3708;42.632;23.378;2023-03-19T10:53:27;94701.75;;;15.98;27.91
7335;BME280;3708;42.632;23.378;2023-03-19T10:55:56;94694.38;;;16.89;27.56
7335;BME280;3708;42.632;23.378;2023-03-19T10:58:26;94686.34;;;17.43;26.79
7335;BME280;3708;42.632;23.378;2023-03-19T11:00:56;94685.25;;;17.86;26.47
7335;BME280;3708;42.632;23.378;2023-03-19T11:03:29;94678.03;;;18.32;25.21
7335;BME280;3708;42.632;23.378;2023-03-19T11:06:15;94681.78;;;18.04;26.04
7335;BME280;3708;42.632;23.378;2023-03-19T11:08:54;94671.66;;;18.36;25.40
7335;BME280;3708;42.632;23.378;2023-03-19T11:11:23;94666.91;;;19.01;25.20
7335;BME280;3708;42.632;23.378;2023-03-19T11:13:51;94660.34;;;19.25;24.36
7335;BME280;3708;42.632;23.378;2023-03-19T11:16:19;94664.19;;;19.31;24.22
7335;BME280;3708;42.632;23.378;2023-03-19T11:18:47;94650.31;;;19.81;23.72
7335;BME280;3708;42.632;23.378;2023-03-19T11:21:28;94649.81;;;20.12;22.78
7335;BME280;3708;42.632;23.378;2023-03-19T11:24:10;94646.31;;;20.52;23.00
7335;BME280;3708;42.632;23.378;2023-03-19T11:26:53;94645.97;;;20.57;21.96
7335;BME280;3708;42.632;23.378;2023-03-19T11:29:32;94638.72;;;20.54;22.47
7335;BME280;3708;42.632;23.378;2023-03-19T11:35:03;94630.59;;;20.98;21.77
7335;BME280;3708;42.632;23.378;2023-03-19T11:37:49;94625.47;;;20.68;22.04
7335;BME280;3708;42.632;23.378;2023-03-19T11:40:33;94624.69;;;20.64;22.40
7335;BME280;3708;42.632;23.378;2023-03-19T11:43:32;94615.34;;;20.98;22.07
7335;BME280;3708;42.632;23.378;2023-03-19T11:46:18;94608.59;;;21.18;22.05
7335;BME280;3708;42.632;23.378;2023-03-19T11:49:10;94608.56;;;21.08;21.52
7335;BME280;3708;42.632;23.378;2023-03-19T11:51:45;94607.16;;;21.53;21.05
7335;BME280;3708;42.632;23.378;2023-03-19T11:54:21;94607.53;;;21.65;20.99
7335;BME280;3708;42.632;23.378;2023-03-19T11:56:56;94608.75;;;22.10;20.59
7335;BME280;3708;42.632;23.378;2023-03-19T11:59:46;94592.66;;;22.52;24.13
7335;BME280;3708;42.632;23.378;2023-03-19T12:02:51;94592.53;;;23.05;22.85
7335;BME280;3708;42.632;23.378;2023-03-19T12:05:30;94589.19;;;23.56;20.38
7335;BME280;3708;42.632;23.378;2023-03-19T12:08:06;94584.31;;;23.95;20.38
7335;BME280;3708;42.632;23.378;2023-03-19T12:11:00;94597.06;;;23.77;19.75
7335;BME280;3708;42.632;23.378;2023-03-19T12:13:39;94591.88;;;22.77;24.39
7335;BME280;3708;42.632;23.378;2023-03-19T12:19:19;94578.41;;;22.98;19.97
7335;BME280;3708;42.632;23.378;2023-03-19T12:22:08;94569.75;;;23.48;20.75
7335;BME280;3708;42.632;23.378;2023-03-19T12:24:59;94578.47;;;23.60;20.48
7335;BME280;3708;42.632;23.378;2023-03-19T12:27:38;94571.88;;;23.75;21.11
7335;BME280;3708;42.632;23.378;2023-03-19T12:30:19;94570.13;;;24.02;23.22
7335;BME280;3708;42.632;23.378;2023-03-19T12:33:04;94566.53;;;24.60;20.11
7335;BME280;3708;42.632;23.378;2023-03-19T12:35:37;94561.09;;;25.01;18.58
7335;BME280;3708;42.632;23.378;2023-03-19T12:38:09;94562.97;;;25.34;19.48
7335;BME280;3708;42.632;23.378;2023-03-19T12:40:42;94561.16;;;25.54;18.84
7335;BME280;3708;42.632;23.378;2023-03-19T12:43:16;94555.59;;;25.11;19.17
7335;BME280;3708;42.632;23.378;2023-03-19T12:45:46;94553.75;;;24.74;18.59
7335;BME280;3708;42.632;23.378;2023-03-19T12:48:20;94550.66;;;24.76;18.51
7335;BME280;3708;42.632;23.378;2023-03-19T12:51:02;94554.91;;;24.73;18.74
7335;BME280;3708;42.632;23.378;2023-03-19T12:53:43;94551.31;;;24.87;18.39
7335;BME280;3708;42.632;23.378;2023-03-19T12:56:18;94549.56;;;24.70;18.53
7335;BME280;3708;42.632;23.378;2023-03-19T12:58:55;94550.75;;;24.65;18.91
7335;BME280;3708;42.632;23.378;2023-03-19T13:01:31;94544.56;;;24.75;18.73
7335;BME280;3708;42.632;23.378;2023-03-19T13:04:02;94546.16;;;24.66;20.08
7335;BME280;3708;42.632;23.378;2023-03-19T13:06:35;94537.28;;;25.06;18.39
7335;BME280;3708;42.632;23.378;2023-03-19T13:09:12;94534.09;;;25.41;22.66
7335;BME280;3708;42.632;23.378;2023-03-19T13:11:45;94524.06;;;25.49;21.38
7335;BME280;3708;42.632;23.378;2023-03-19T13:14:18;94529.50;;;25.68;20.06
7335;BME280;3708;42.632;23.378;2023-03-19T13:16:55;94525.72;;;25.66;18.19
7335;BME280;3708;42.632;23.378;2023-03-19T13:19:29;94519.25;;;25.87;18.06
7335;BME280;3708;42.632;23.378;2023-03-19T13:22:03;94525.94;;;25.75;18.08
7335;BME280;3708;42.632;23.378;2023-03-19T13:24:34;94517.13;;;25.25;18.60
7335;BME280;3708;42.632;23.378;2023-03-19T13:27:05;94512.88;;;25.54;18.69
7335;BME280;3708;42.632;23.378;2023-03-19T13:29:34;94509.84;;;25.75;19.04
7335;BME280;3708;42.632;23.378;2023-03-19T13:32:06;94512.59;;;25.71;20.54
7335;BME280;3708;42.632;23.378;2023-03-19T13:34:36;94509.66;;;25.62;18.81
7335;BME280;3708;42.632;23.378;2023-03-19T13:37:10;94512.53;;;25.52;18.96
7335;BME280;3708;42.632;23.378;2023-03-19T13:39:40;94509.84;;;25.25;19.29